Time,TemperatureF,DewpointF,PressureIn,WindDirection,WindDirectionDegrees,WindSpeedMPH,WindSpeedGustMPH,Humidity,HourlyPrecipIn,Conditions,Clouds,dailyrainin,SoftwareType,DateUTC
2013-01-24 00:01:00,-1.5,-16.1,30.14,NNW,337,1.1,2.3,49,0.00,CLR,,0.00,WeatherDisplay:10.37,2013-01-24 05:01:00,
2013-01-24 00:02:00,-1.7,-16.2,30.14,NNW,334,0.6,2.3,49,0.00,CLR,,0.00,WeatherDisplay:10.37,2013-01-24 05:02:00,
2013-01-24 00:04:00,-1.7,-16.2,30.14,NW,316,2.1,3.5,49,0.00,CLR,,0.00,WeatherDisplay:10.37,2013-01-24 05:04:00,
2013-01-24 00:09:00,-1.9,-16.4,30.14,NW,320,2.5,5.8,49,0.00,CLR,,0.00,WeatherDisplay:10.37,2013-01-24 05:09:00,
2013-01-24 00:14:00,-2.1,-16.6,30.14,NW,305,0.7,2.3,49,0.00,CLR,,0.00,WeatherDisplay:10.37,2013-01-24 05:14:00,
2013-01-24 00:19:00,-2.1,-16.2,30.13,WNW,302,2.3,5.8,50,0.00,CLR,,0.00,WeatherDisplay:10.37,2013-01-24 05:19:00,
2013-01-24 00:24:00,-1.9,-16.0,30.13,NNW,347,1.4,3.5,50,0.00,CLR,,0.00,WeatherDisplay:10.37,2013-01-24 05:24:00,
2013-01-24 00:29:00,-1.9,-16.0,30.14,NNW,334,1.3,2.3,50,0.00,CLR,,0.00,WeatherDisplay:10.37,2013-01-24 05:29:00,
2013-01-24 00:34:00,-1.9,-16.0,30.13,NW,323,2.4,4.6,50,0.00,CLR,,0.00,WeatherDisplay:10.37,2013-01-24 05:34:00,
2013-01-24 00:39:00,-2.1,-16.2,30.13,WNW,290,3.4,8.1,50,0.00,CLR,,0.00,WeatherDisplay:10.37,2013-01-24 05:39:00,
2013-01-24 00:44:00,-2.1,-16.2,30.14,NW,307,4.6,7.0,50,0.00,CLR,,0.00,WeatherDisplay:10.37,2013-01-24 05:44:00,
2013-01-24 00:49:00,-2.1,-16.2,30.14,NW,313,2.2,5.0,50,0.00,CLR,,0.00,WeatherDisplay:10.37,2013-01-24 05:49:00,
2013-01-24 00:54:00,-2.1,-16.2,30.14,NW,313,3.4,8.1,50,0.00,CLR,,0.00,WeatherDisplay:10.37,2013-01-24 05:54:00,
2013-01-24 00:59:00,-1.9,-16.0,30.13,WNW,288,5.8,8.1,50,0.00,CLR,,0.00,WeatherDisplay:10.37,2013-01-24 05:59:00,
2013-01-24 01:04:00,-1.9,-16.0,30.13,WNW,290,6.8,13.8,50,0.00,CLR,,0.00,WeatherDisplay:10.37,2013-01-24 06:04:00,
2013-01-24 01:09:00,-1.9,-15.6,30.13,NW,306,2.2,5.0,51,0.00,CLR,,0.00,WeatherDisplay:10.37,2013-01-24 06:09:00,
2013-01-24 01:14:00,-1.9,-15.6,30.13,North,354,2.4,4.6,51,0.00,CLR,,0.00,WeatherDisplay:10.37,2013-01-24 06:14:00,
2013-01-24 01:19:00,-2.1,-16.2,30.13,NNW,327,1.4,3.0,50,0.00,CLR,,0.00,WeatherDisplay:10.37,2013-01-24 06:19:00,
2013-01-24 01:24:00,-2.3,-16.0,30.13,WNW,303,4.0,6.9,51,0.00,CLR,,0.00,WeatherDisplay:10.37,2013-01-24 06:24:00,
2013-01-24 01:29:00,-2.3,-16.4,30.12,NW,323,4.6,6.9,50,0.00,CLR,,0.00,WeatherDisplay:10.37,2013-01-24 06:29:00,
2013-01-24 01:34:00,-2.3,-16.0,30.12,NNW,330,2.2,4.6,51,0.00,CLR,,0.00,WeatherDisplay:10.37,2013-01-24 06:34:00,
2013-01-24 01:39:00,-2.3,-16.0,30.13,NW,306,4.3,8.1,51,0.00,CLR,,0.00,WeatherDisplay:10.37,2013-01-24 06:39:00,
2013-01-24 01:44:00,-2.5,-16.2,30.13,NW,306,5.9,9.2,51,0.00,CLR,,0.00,WeatherDisplay:10.37,2013-01-24 06:44:00,
2013-01-24 01:49:00,-2.3,-16.4,30.13,NNW,333,4.5,8.1,50,0.00,CLR,,0.00,WeatherDisplay:10.37,2013-01-24 06:49:00,
2013-01-24 01:54:00,-2.3,-16.4,30.13,North,358,2.2,5.0,50,0.00,CLR,,0.00,WeatherDisplay:10.37,2013-01-24 06:54:00,
2013-01-24 01:59:00,-2.3,-16.0,30.13,NNW,337,0.6,2.0,51,0.00,CLR,,0.00,WeatherDisplay:10.37,2013-01-24 06:59:00,
2013-01-24 02:04:00,-2.5,-16.6,30.13,NNW,329,0.3,2.0,50,0.00,CLR,,0.00,WeatherDisplay:10.37,2013-01-24 07:04:00,
2013-01-24 02:09:00,-2.5,-16.2,30.14,NNW,348,2.9,4.6,51,0.00,CLR,,0.00,WeatherDisplay:10.37,2013-01-24 07:09:00,
2013-01-24 02:14:00,-2.7,-16.4,30.13,NNW,333,0.8,3.5,51,0.00,CLR,,0.00,WeatherDisplay:10.37,2013-01-24 07:14:00,
2013-01-24 02:19:00,-2.7,-16.4,30.13,NNW,340,2.0,5.0,51,0.00,CLR,,0.00,WeatherDisplay:10.37,2013-01-24 07:19:00,
2013-01-24 02:24:00,-2.7,-16.4,30.13,NW,306,4.7,11.0,51,0.00,CLR,,0.00,WeatherDisplay:10.37,2013-01-24 07:24:00,
2013-01-24 02:29:00,-2.7,-16.8,30.13,NW,310,9.8,12.7,50,0.00,CLR,,0.00,WeatherDisplay:10.37,2013-01-24 07:29:00,
2013-01-24 02:34:00,-2.5,-17.0,30.13,NNW,344,10.3,18.4,49,0.00,CLR,,0.00,WeatherDisplay:10.37,2013-01-24 07:34:00,
2013-01-24 02:39:00,-2.3,-17.2,30.12,WNW,296,9.3,12.7,48,0.00,CLR,,0.00,WeatherDisplay:10.37,2013-01-24 07:39:00,
2013-01-24 02:44:00,-2.3,-17.2,30.12,NNW,330,8.7,12.7,48,0.00,CLR,,0.00,WeatherDisplay:10.37,2013-01-24 07:44:00,
2013-01-24 02:49:00,-2.3,-17.2,30.12,NNW,327,6.6,13.0,48,0.00,CLR,,0.00,WeatherDisplay:10.37,2013-01-24 07:49:00,
2013-01-24 02:54:00,-2.3,-17.6,30.12,NW,323,2.6,10.4,47,0.00,CLR,,0.00,WeatherDisplay:10.37,2013-01-24 07:54:00,
2013-01-24 02:59:00,-2.3,-17.6,30.12,NNW,340,6.6,11.5,47,0.00,CLR,,0.00,WeatherDisplay:10.37,2013-01-24 07:59:00,
2013-01-24 03:04:00,-2.5,-17.4,30.12,North,355,5.4,9.2,48,0.00,CLR,,0.00,WeatherDisplay:10.37,2013-01-24 08:04:00,
2013-01-24 03:09:00,-2.5,-17.0,30.12,NNW,330,2.4,3.5,49,0.00,CLR,,0.00,WeatherDisplay:10.37,2013-01-24 08:09:00,
2013-01-24 03:14:00,-2.9,-17.0,30.12,NNW,327,5.3,8.1,50,0.00,CLR,,0.00,WeatherDisplay:10.37,2013-01-24 08:14:00,
2013-01-24 03:19:00,-2.9,-17.0,30.12,NNW,334,4.4,6.9,50,0.00,CLR,,0.00,WeatherDisplay:10.37,2013-01-24 08:19:00,
2013-01-24 03:24:00,-3.1,-17.2,30.12,NNW,338,2.8,5.8,50,0.00,CLR,,0.00,WeatherDisplay:10.37,2013-01-24 08:24:00,
2013-01-24 03:29:00,-3.4,-17.0,30.12,NNW,330,1.3,5.8,51,0.00,CLR,,0.00,WeatherDisplay:10.37,2013-01-24 08:29:00,
2013-01-24 03:34:00,-3.6,-17.2,30.12,NNW,337,6.7,8.1,51,0.00,CLR,,0.00,WeatherDisplay:10.37,2013-01-24 08:34:00,
2013-01-24 03:39:00,-3.6,-17.2,30.12,NW,307,5.1,6.9,51,0.00,CLR,,0.00,WeatherDisplay:10.37,2013-01-24 08:39:00,
2013-01-24 03:44:00,-3.6,-17.2,30.12,NW,326,2.9,6.9,51,0.00,CLR,,0.00,WeatherDisplay:10.37,2013-01-24 08:44:00,
2013-01-24 03:49:00,-3.6,-17.2,30.12,North,355,6.1,10.4,51,0.00,CLR,,0.00,WeatherDisplay:10.37,2013-01-24 08:49:00,
2013-01-24 03:54:00,-3.6,-17.2,30.12,NNW,348,6.3,10.0,51,0.00,CLR,,0.00,WeatherDisplay:10.37,2013-01-24 08:54:00,
2013-01-24 03:59:00,-3.6,-17.2,30.12,WNW,300,5.6,11.5,51,0.00,CLR,,0.00,WeatherDisplay:10.37,2013-01-24 08:59:00,
2013-01-24 04:04:00,-3.8,-17.4,30.12,NW,323,5.4,10.4,51,0.00,CLR,,0.00,WeatherDisplay:10.37,2013-01-24 09:04:00,
2013-01-24 04:09:00,-3.8,-17.8,30.11,NW,313,0.8,8.1,50,0.00,CLR,,0.00,WeatherDisplay:10.37,2013-01-24 09:09:00,
2013-01-24 04:14:00,-3.8,-17.4,30.11,NW,323,3.4,6.9,51,0.00,CLR,,0.00,WeatherDisplay:10.37,2013-01-24 09:14:00,
2013-01-24 04:19:00,-4.0,-18.0,30.11,NW,309,1.7,4.6,50,0.00,CLR,,0.00,WeatherDisplay:10.37,2013-01-24 09:19:00,
2013-01-24 04:24:00,-4.0,-18.0,30.11,NNW,329,4.7,5.8,50,0.00,CLR,,0.00,WeatherDisplay:10.37,2013-01-24 09:24:00,
2013-01-24 04:29:00,-3.8,-17.8,30.11,NW,314,7.2,9.2,50,0.00,CLR,,0.00,WeatherDisplay:10.37,2013-01-24 09:29:00,
2013-01-24 04:34:00,-3.6,-18.0,30.11,NW,309,5.0,7.0,49,0.00,CLR,,0.00,WeatherDisplay:10.37,2013-01-24 09:34:00,
2013-01-24 04:39:00,-3.6,-18.0,30.11,NW,306,7.5,11.5,49,0.00,CLR,,0.00,WeatherDisplay:10.37,2013-01-24 09:39:00,
2013-01-24 04:44:00,-3.6,-18.0,30.12,North,353,5.9,9.2,49,0.00,CLR,,0.00,WeatherDisplay:10.37,2013-01-24 09:44:00,
2013-01-24 04:49:00,-3.6,-18.0,30.12,WNW,293,5.3,8.1,49,0.00,CLR,,0.00,WeatherDisplay:10.37,2013-01-24 09:49:00,
2013-01-24 04:54:00,-3.6,-18.0,30.12,NW,306,3.8,8.1,49,0.00,CLR,,0.00,WeatherDisplay:10.37,2013-01-24 09:54:00,
2013-01-24 04:59:00,-3.6,-18.0,30.12,NW,307,1.7,2.3,49,0.00,CLR,,0.00,WeatherDisplay:10.37,2013-01-24 09:59:00,
2013-01-24 05:04:00,-3.8,-18.2,30.12,NNW,331,1.1,2.3,49,0.00,CLR,,0.00,WeatherDisplay:10.37,2013-01-24 10:04:00,
2013-01-24 05:09:00,-3.8,-18.2,30.12,NW,306,3.3,6.9,49,0.00,CLR,,0.00,WeatherDisplay:10.37,2013-01-24 10:09:00,
2013-01-24 05:14:00,-3.8,-18.2,30.12,NW,319,5.8,9.0,49,0.00,CLR,,0.00,WeatherDisplay:10.37,2013-01-24 10:14:00,
2013-01-24 05:19:00,-3.8,-18.2,30.12,NW,313,3.1,5.8,49,0.00,CLR,,0.00,WeatherDisplay:10.37,2013-01-24 10:19:00,
2013-01-24 05:24:00,-4.0,-18.0,30.12,NW,319,6.9,8.1,50,0.00,CLR,,0.00,WeatherDisplay:10.37,2013-01-24 10:24:00,
2013-01-24 05:29:00,-4.0,-18.0,30.12,NNW,337,3.1,6.0,50,0.00,CLR,,0.00,WeatherDisplay:10.37,2013-01-24 10:29:00,
2013-01-24 05:34:00,-4.0,-18.0,30.12,WNW,300,1.2,4.6,50,0.00,CLR,,0.00,WeatherDisplay:10.37,2013-01-24 10:34:00,
2013-01-24 05:39:00,-4.2,-18.2,30.12,NW,323,0.8,2.3,50,0.00,CLR,,0.00,WeatherDisplay:10.37,2013-01-24 10:39:00,
2013-01-24 05:44:00,-4.2,-18.2,30.12,WNW,293,2.0,4.6,50,0.00,CLR,,0.00,WeatherDisplay:10.37,2013-01-24 10:44:00,
2013-01-24 05:49:00,-4.2,-18.2,30.12,NNW,333,2.9,6.9,50,0.00,CLR,,0.00,WeatherDisplay:10.37,2013-01-24 10:49:00,
2013-01-24 05:54:00,-4.2,-18.2,30.12,NNW,337,2.4,4.6,50,0.00,CLR,,0.00,WeatherDisplay:10.37,2013-01-24 10:54:00,
2013-01-24 05:59:00,-4.2,-18.2,30.12,NNW,331,1.0,1.1,50,0.00,CLR,,0.00,WeatherDisplay:10.37,2013-01-24 10:59:00,
2013-01-24 06:04:00,-4.4,-18.0,30.12,NNW,330,0.5,2.3,51,0.00,CLR,,0.00,WeatherDisplay:10.37,2013-01-24 11:04:00,
2013-01-24 06:09:00,-4.4,-18.0,30.13,NW,309,2.0,2.3,51,0.00,CLR,,0.00,WeatherDisplay:10.37,2013-01-24 11:09:00,
2013-01-24 06:14:00,-4.4,-18.0,30.13,NW,313,3.7,5.0,51,0.00,CLR,,0.00,WeatherDisplay:10.37,2013-01-24 11:14:00,
2013-01-24 06:19:00,-4.4,-18.0,30.13,NW,312,7.7,9.0,51,0.00,CLR,,0.00,WeatherDisplay:10.37,2013-01-24 11:19:00,
2013-01-24 06:24:00,-4.2,-18.2,30.13,NW,310,4.7,6.9,50,0.00,CLR,,0.00,WeatherDisplay:10.37,2013-01-24 11:24:00,
2013-01-24 06:29:00,-4.2,-18.2,30.13,NNW,330,5.6,8.0,50,0.00,CLR,,0.00,WeatherDisplay:10.37,2013-01-24 11:29:00,
2013-01-24 06:34:00,-4.0,-18.0,30.13,North,358,2.1,6.9,50,0.00,CLR,,0.00,WeatherDisplay:10.37,2013-01-24 11:34:00,
2013-01-24 06:39:00,-4.0,-18.0,30.13,NNW,338,1.0,2.3,50,0.00,CLR,,0.00,WeatherDisplay:10.37,2013-01-24 11:39:00,
2013-01-24 06:44:00,-4.0,-18.0,30.14,NW,323,2.6,4.6,50,0.00,CLR,,0.00,WeatherDisplay:10.37,2013-01-24 11:44:00,
2013-01-24 06:49:00,-4.2,-18.2,30.14,North,0,1.7,2.3,50,0.00,CLR,,0.00,WeatherDisplay:10.37,2013-01-24 11:49:00,
2013-01-24 06:54:00,-4.4,-18.4,30.14,NNW,334,3.3,8.1,50,0.00,CLR,,0.00,WeatherDisplay:10.37,2013-01-24 11:54:00,
2013-01-24 06:59:00,-4.4,-18.4,30.14,NW,309,4.7,6.9,50,0.00,CLR,,0.00,WeatherDisplay:10.37,2013-01-24 11:59:00,
2013-01-24 07:04:00,-4.4,-18.4,30.14,NW,309,2.8,5.8,50,0.00,CLR,,0.00,WeatherDisplay:10.37,2013-01-24 12:04:00,
2013-01-24 07:09:00,-4.4,-18.4,30.14,NNW,329,1.3,4.6,50,0.00,CLR,,0.00,WeatherDisplay:10.37,2013-01-24 12:09:00,
2013-01-24 07:14:00,-4.4,-18.4,30.14,North,358,1.6,5.8,50,0.00,CLR,,0.00,WeatherDisplay:10.37,2013-01-24 12:14:00,
2013-01-24 07:19:00,-4.2,-18.2,30.14,NNW,345,4.2,5.8,50,0.00,CLR,,0.00,WeatherDisplay:10.37,2013-01-24 12:19:00,
2013-01-24 07:24:00,-4.2,-18.2,30.14,NW,321,4.6,8.1,50,0.00,CLR,,0.00,WeatherDisplay:10.37,2013-01-24 12:24:00,
2013-01-24 07:29:00,-3.8,-18.2,30.14,North,354,2.7,6.9,49,0.00,CLR,,0.00,WeatherDisplay:10.37,2013-01-24 12:29:00,
2013-01-24 07:34:00,-3.8,-18.2,30.14,NNW,341,4.7,6.9,49,0.00,CLR,,0.00,WeatherDisplay:10.37,2013-01-24 12:34:00,
2013-01-24 07:39:00,-3.6,-18.0,30.14,NNW,333,1.9,5.8,49,0.00,CLR,,0.00,WeatherDisplay:10.37,2013-01-24 12:39:00,
2013-01-24 07:44:00,-3.6,-18.4,30.14,North,358,3.5,6.9,48,0.00,CLR,,0.00,WeatherDisplay:10.37,2013-01-24 12:44:00,
2013-01-24 07:49:00,-3.4,-18.2,30.14,NNW,331,3.1,10.4,48,0.00,CLR,,0.00,WeatherDisplay:10.37,2013-01-24 12:49:00,
2013-01-24 07:54:00,-2.9,-17.8,30.14,NNW,341,4.4,4.6,48,0.00,CLR,,0.00,WeatherDisplay:10.37,2013-01-24 12:54:00,
2013-01-24 07:59:00,-2.7,-18.0,30.14,North,358,5.8,11.5,47,0.00,CLR,,0.00,WeatherDisplay:10.37,2013-01-24 12:59:00,
2013-01-24 08:04:00,-2.5,-17.8,30.14,NW,321,0.8,3.5,47,0.00,CLR,,0.00,WeatherDisplay:10.37,2013-01-24 13:04:00,
2013-01-24 08:09:00,-2.3,-17.6,30.14,WNW,293,8.0,11.5,47,0.00,CLR,,0.00,WeatherDisplay:10.37,2013-01-24 13:09:00,
2013-01-24 08:14:00,-2.1,-17.9,30.14,WNW,288,2.4,11.5,46,0.00,CLR,,0.00,WeatherDisplay:10.37,2013-01-24 13:14:00,
2013-01-24 08:19:00,-1.7,-17.9,30.14,NW,319,6.3,17.3,45,0.00,CLR,,0.00,WeatherDisplay:10.37,2013-01-24 13:19:00,
2013-01-24 08:24:00,-1.1,-17.4,30.14,NNW,343,7.7,9.0,45,0.00,CLR,,0.00,WeatherDisplay:10.37,2013-01-24 13:24:00,
2013-01-24 08:29:00,-0.7,-17.4,30.14,NW,312,9.1,12.7,44,0.00,CLR,,0.00,WeatherDisplay:10.37,2013-01-24 13:29:00,
2013-01-24 08:34:00,-0.3,-17.5,30.14,North,0,11.3,12.7,43,0.00,CLR,,0.00,WeatherDisplay:10.37,2013-01-24 13:34:00,
2013-01-24 08:39:00,0.0,-17.7,30.15,NNW,331,9.1,11.5,42,0.00,CLR,,0.00,WeatherDisplay:10.37,2013-01-24 13:39:00,
2013-01-24 08:44:00,0.4,-16.9,30.15,ENE,59,5.6,11.0,43,0.00,CLR,,0.00,WeatherDisplay:10.37,2013-01-24 13:44:00,
2013-01-24 08:49:00,0.8,-17.0,30.15,NNW,344,7.6,10.4,42,0.00,CLR,,0.00,WeatherDisplay:10.37,2013-01-24 13:49:00,
2013-01-24 08:54:00,1.0,-17.3,30.15,WNW,299,9.9,16.1,41,0.00,CLR,,0.00,WeatherDisplay:10.37,2013-01-24 13:54:00,
2013-01-24 08:59:00,1.2,-17.6,30.15,NW,309,13.7,16.1,40,0.00,CLR,,0.00,WeatherDisplay:10.37,2013-01-24 13:59:00,
2013-01-24 09:04:00,1.4,-17.4,30.15,NW,319,8.2,11.5,40,0.00,CLR,,0.00,WeatherDisplay:10.37,2013-01-24 14:04:00,
2013-01-24 09:09:00,1.7,-17.6,30.15,North,2,5.1,11.5,39,0.00,CLR,,0.00,WeatherDisplay:10.37,2013-01-24 14:09:00,
2013-01-24 09:14:00,1.9,-17.4,30.14,WNW,303,7.7,16.1,39,0.00,CLR,,0.00,WeatherDisplay:10.37,2013-01-24 14:14:00,
2013-01-24 09:19:00,2.3,-17.6,30.14,NW,324,12.7,18.4,38,0.00,CLR,,0.00,WeatherDisplay:10.37,2013-01-24 14:19:00,
2013-01-24 09:24:00,2.7,-16.7,30.14,NW,316,12.3,13.8,39,0.00,CLR,,0.00,WeatherDisplay:10.37,2013-01-24 14:24:00,
2013-01-24 09:29:00,3.2,-16.7,30.14,West,273,11.0,12.7,38,0.00,CLR,,0.00,WeatherDisplay:10.37,2013-01-24 14:29:00,
2013-01-24 09:34:00,3.2,-17.3,30.14,NW,306,9.1,19.6,37,0.00,CLR,,0.00,WeatherDisplay:10.37,2013-01-24 14:34:00,
2013-01-24 09:39:00,3.6,-16.9,30.14,WNW,296,9.4,12.7,37,0.00,CLR,,0.00,WeatherDisplay:10.37,2013-01-24 14:39:00,
2013-01-24 09:44:00,4.2,-15.8,30.14,North,355,6.9,6.9,38,0.00,CLR,,0.00,WeatherDisplay:10.37,2013-01-24 14:44:00,
2013-01-24 09:49:00,4.5,-16.1,30.14,NW,317,6.5,9.0,37,0.00,CLR,,0.00,WeatherDisplay:10.37,2013-01-24 14:49:00,
2013-01-24 09:54:00,5.1,-15.6,30.14,NNW,327,11.3,13.8,37,0.00,CLR,,0.00,WeatherDisplay:10.37,2013-01-24 14:54:00,
2013-01-24 09:59:00,5.3,-15.9,30.14,NW,309,7.7,11.5,36,0.00,CLR,,0.00,WeatherDisplay:10.37,2013-01-24 14:59:00,
2013-01-24 10:04:00,5.7,-15.6,30.14,NNW,337,10.5,17.3,36,0.00,BKN,,0.00,WeatherDisplay:10.37,2013-01-24 15:04:00,
2013-01-24 10:09:00,6.0,-16.4,30.14,WNW,299,8.4,13.8,34,0.00,BKN,,0.00,WeatherDisplay:10.37,2013-01-24 15:09:00,
2013-01-24 10:14:00,6.4,-15.5,30.14,WNW,299,10.2,11.5,35,0.00,BKN,,0.00,WeatherDisplay:10.37,2013-01-24 15:14:00,
2013-01-24 10:19:00,6.7,-15.8,30.14,NW,309,9.0,17.3,34,0.00,BKN,,0.00,WeatherDisplay:10.37,2013-01-24 15:19:00,
2013-01-24 10:24:00,7.3,-15.3,30.14,NW,317,3.1,10.0,34,0.00,BKN,,0.00,WeatherDisplay:10.37,2013-01-24 15:24:00,
2013-01-24 10:29:00,7.6,-15.0,30.14,North,351,8.2,11.5,34,0.00,BKN,,0.00,WeatherDisplay:10.37,2013-01-24 15:29:00,
2013-01-24 10:34:00,8.0,-14.6,30.14,NW,319,12.8,18.4,34,0.00,BKN,,0.00,WeatherDisplay:10.37,2013-01-24 15:34:00,
2013-01-24 10:39:00,8.1,-15.1,30.14,WNW,303,13.0,16.1,33,0.00,BKN,,0.00,WeatherDisplay:10.37,2013-01-24 15:39:00,
2013-01-24 10:44:00,8.0,-15.8,30.14,NW,306,6.4,19.6,32,0.00,BKN,,0.00,WeatherDisplay:10.37,2013-01-24 15:44:00,
2013-01-24 10:49:00,8.5,-14.8,30.14,NW,320,6.9,11.5,33,0.00,BKN,,0.00,WeatherDisplay:10.37,2013-01-24 15:49:00,
2013-01-24 10:54:00,8.7,-15.2,30.14,NW,324,7.1,13.8,32,0.00,BKN,,0.00,WeatherDisplay:10.37,2013-01-24 15:54:00,
2013-01-24 10:59:00,8.9,-14.4,30.13,NNW,338,8.1,13.8,33,0.00,BKN,,0.00,WeatherDisplay:10.37,2013-01-24 15:59:00,
2013-01-24 11:04:00,9.0,-14.3,30.13,NW,319,7.8,16.1,33,0.00,OVC,,0.00,WeatherDisplay:10.37,2013-01-24 16:04:00,
2013-01-24 11:09:00,8.9,-15.0,30.13,WNW,290,11.8,24.2,32,0.00,OVC,,0.00,WeatherDisplay:10.37,2013-01-24 16:09:00,
2013-01-24 11:14:00,8.9,-14.4,30.13,NNW,331,8.6,11.5,33,0.00,OVC,,0.00,WeatherDisplay:10.37,2013-01-24 16:14:00,
2013-01-24 11:19:00,8.5,-15.4,30.12,NNW,343,8.9,16.1,32,0.00,OVC,,0.00,WeatherDisplay:10.37,2013-01-24 16:19:00,
2013-01-24 11:24:00,8.5,-14.8,30.12,NNW,329,15.8,15.8,33,0.00,OVC,,0.00,WeatherDisplay:10.37,2013-01-24 16:24:00,
2013-01-24 11:29:00,8.7,-14.0,30.12,WNW,292,7.6,16.1,34,0.00,OVC,,0.00,WeatherDisplay:10.37,2013-01-24 16:29:00,
2013-01-24 11:34:00,9.0,-14.3,30.12,NW,314,11.2,13.8,33,0.00,OVC,,0.00,WeatherDisplay:10.37,2013-01-24 16:34:00,
2013-01-24 11:39:00,8.9,-15.0,30.12,WNW,293,14.5,26.5,32,0.00,OVC,,0.00,WeatherDisplay:10.37,2013-01-24 16:39:00,
2013-01-24 11:44:00,8.7,-14.6,30.12,WNW,292,12.1,19.6,33,0.00,OVC,,0.00,WeatherDisplay:10.37,2013-01-24 16:44:00,
2013-01-24 11:49:00,8.5,-14.8,30.12,NNW,340,13.7,21.9,33,0.00,OVC,,0.00,WeatherDisplay:10.37,2013-01-24 16:49:00,
2013-01-24 11:54:00,8.5,-14.8,30.12,NNW,333,10.3,20.0,33,0.00,OVC,,0.00,WeatherDisplay:10.37,2013-01-24 16:54:00,
2013-01-24 11:59:00,8.9,-13.8,30.11,NNW,329,17.0,24.0,34,0.00,OVC,,0.00,WeatherDisplay:10.37,2013-01-24 16:59:00,
2013-01-24 12:04:00,8.9,-15.0,30.11,WNW,283,10.3,19.6,32,0.00,OVC,,0.00,WeatherDisplay:10.37,2013-01-24 17:04:00,
2013-01-24 12:09:00,9.0,-14.3,30.11,NW,310,13.8,19.0,33,0.00,OVC,,0.00,WeatherDisplay:10.37,2013-01-24 17:09:00,
2013-01-24 12:14:00,9.4,-14.0,30.11,NW,319,12.5,19.0,33,0.00,OVC,,0.00,WeatherDisplay:10.37,2013-01-24 17:14:00,
2013-01-24 12:19:00,9.6,-14.4,30.10,WNW,286,10.3,18.4,32,0.00,OVC,,0.00,WeatherDisplay:10.37,2013-01-24 17:19:00,
2013-01-24 12:24:00,9.9,-14.1,30.10,NW,323,17.6,24.0,32,0.00,OVC,,0.00,WeatherDisplay:10.37,2013-01-24 17:24:00,
2013-01-24 12:29:00,10.1,-14.0,30.10,West,276,11.8,13.8,32,0.00,OVC,,0.00,WeatherDisplay:10.37,2013-01-24 17:29:00,
2013-01-24 12:34:00,10.6,-13.5,30.10,NW,319,12.2,18.4,32,0.00,OVC,,0.00,WeatherDisplay:10.37,2013-01-24 17:34:00,
2013-01-24 12:39:00,10.8,-13.3,30.10,WNW,299,9.6,17.3,32,0.00,OVC,,0.00,WeatherDisplay:10.37,2013-01-24 17:39:00,
2013-01-24 12:44:00,10.9,-13.2,30.10,WNW,297,8.6,16.0,32,0.00,OVC,,0.00,WeatherDisplay:10.37,2013-01-24 17:44:00,
2013-01-24 12:49:00,10.9,-13.9,30.10,WNW,292,11.4,13.8,31,0.00,OVC,,0.00,WeatherDisplay:10.37,2013-01-24 17:49:00,
2013-01-24 12:54:00,11.1,-13.1,30.10,NW,319,7.0,13.8,32,0.00,OVC,,0.00,WeatherDisplay:10.37,2013-01-24 17:54:00,
2013-01-24 12:59:00,11.6,-12.6,30.10,NW,313,6.1,12.7,32,0.00,OVC,,0.00,WeatherDisplay:10.37,2013-01-24 17:59:00,
2013-01-24 13:04:00,12.0,-12.3,30.10,WNW,292,10.5,20.7,32,0.00,BKN,,0.00,WeatherDisplay:10.37,2013-01-24 18:04:00,
2013-01-24 13:09:00,12.1,-12.8,30.10,WNW,288,14.1,19.6,31,0.00,BKN,,0.00,WeatherDisplay:10.37,2013-01-24 18:09:00,
2013-01-24 13:14:00,12.0,-12.9,30.09,NW,314,10.2,13.8,31,0.00,BKN,,0.00,WeatherDisplay:10.37,2013-01-24 18:14:00,
2013-01-24 13:19:00,11.8,-13.7,30.09,WNW,300,18.9,28.8,30,0.00,BKN,,0.00,WeatherDisplay:10.37,2013-01-24 18:19:00,
2013-01-24 13:24:00,11.6,-13.9,30.09,NW,316,15.1,20.7,30,0.00,BKN,,0.00,WeatherDisplay:10.37,2013-01-24 18:24:00,
2013-01-24 13:29:00,11.6,-13.3,30.09,NW,314,10.2,16.1,31,0.00,BKN,,0.00,WeatherDisplay:10.37,2013-01-24 18:29:00,
2013-01-24 13:34:00,11.6,-14.6,30.09,North,358,12.0,19.6,29,0.00,BKN,,0.00,WeatherDisplay:10.37,2013-01-24 18:34:00,
2013-01-24 13:39:00,11.6,-14.6,30.09,WNW,283,12.2,17.3,29,0.00,BKN,,0.00,WeatherDisplay:10.37,2013-01-24 18:39:00,
2013-01-24 13:44:00,11.8,-13.7,30.08,WNW,296,13.3,25.3,30,0.00,BKN,,0.00,WeatherDisplay:10.37,2013-01-24 18:44:00,
2013-01-24 13:49:00,12.0,-14.2,30.08,NNW,327,6.5,26.5,29,0.00,BKN,,0.00,WeatherDisplay:10.37,2013-01-24 18:49:00,
2013-01-24 13:54:00,12.3,-14.0,30.08,WNW,302,12.5,17.0,29,0.00,BKN,,0.00,WeatherDisplay:10.37,2013-01-24 18:54:00,
2013-01-24 13:59:00,12.3,-14.7,30.07,NNW,338,14.7,14.7,28,0.00,BKN,,0.00,WeatherDisplay:10.37,2013-01-24 18:59:00,
2013-01-24 14:04:00,12.3,-14.7,30.07,NW,309,16.0,25.3,28,0.00,CLR,,0.00,WeatherDisplay:10.37,2013-01-24 19:04:00,
2013-01-24 14:09:00,13.0,-13.4,30.07,NNW,336,16.8,19.6,29,0.00,CLR,,0.00,WeatherDisplay:10.37,2013-01-24 19:09:00,
2013-01-24 14:14:00,13.3,-13.8,30.07,NW,310,21.4,25.3,28,0.00,CLR,,0.00,WeatherDisplay:10.37,2013-01-24 19:14:00,
2013-01-24 14:19:00,13.5,-13.6,30.07,NW,319,7.9,13.8,28,0.00,CLR,,0.00,WeatherDisplay:10.37,2013-01-24 19:19:00,
2013-01-24 14:24:00,13.8,-13.4,30.07,WNW,299,7.1,17.3,28,0.00,CLR,,0.00,WeatherDisplay:10.37,2013-01-24 19:24:00,
2013-01-24 14:29:00,14.5,-12.7,30.07,NNW,333,14.8,18.4,28,0.00,CLR,,0.00,WeatherDisplay:10.37,2013-01-24 19:29:00,
2013-01-24 14:34:00,14.8,-13.2,30.07,NNW,329,13.2,27.6,27,0.00,CLR,,0.00,WeatherDisplay:10.37,2013-01-24 19:34:00,
2013-01-24 14:39:00,14.9,-13.1,30.07,NNW,338,12.9,16.1,27,0.00,CLR,,0.00,WeatherDisplay:10.37,2013-01-24 19:39:00,
2013-01-24 14:44:00,15.1,-13.0,30.07,NW,310,8.9,16.1,27,0.00,CLR,,0.00,WeatherDisplay:10.37,2013-01-24 19:44:00,
2013-01-24 14:49:00,14.8,-13.2,30.07,NW,309,10.7,16.0,27,0.00,CLR,,0.00,WeatherDisplay:10.37,2013-01-24 19:49:00,
2013-01-24 14:54:00,14.5,-12.7,30.07,NW,310,11.5,17.3,28,0.00,CLR,,0.00,WeatherDisplay:10.37,2013-01-24 19:54:00,
2013-01-24 14:59:00,14.3,-13.6,30.08,NW,321,12.0,24.2,27,0.00,CLR,,0.00,WeatherDisplay:10.37,2013-01-24 19:59:00,
2013-01-24 15:04:00,14.1,-13.1,30.08,West,269,18.0,24.2,28,0.00,CLR,,0.00,WeatherDisplay:10.37,2013-01-24 20:04:00,
2013-01-24 15:09:00,14.0,-13.9,30.08,NW,323,12.0,26.5,27,0.00,CLR,,0.00,WeatherDisplay:10.37,2013-01-24 20:09:00,
2013-01-24 15:14:00,14.0,-13.2,30.08,NNW,329,14.3,24.2,28,0.00,CLR,,0.00,WeatherDisplay:10.37,2013-01-24 20:14:00,
2013-01-24 15:19:00,13.7,-14.2,30.08,WNW,289,13.8,19.6,27,0.00,CLR,,0.00,WeatherDisplay:10.37,2013-01-24 20:19:00,
2013-01-24 15:24:00,13.5,-14.3,30.08,WNW,299,15.1,19.6,27,0.00,CLR,,0.00,WeatherDisplay:10.37,2013-01-24 20:24:00,
2013-01-24 15:29:00,13.5,-14.3,30.08,NNW,347,11.2,18.4,27,0.00,CLR,,0.00,WeatherDisplay:10.37,2013-01-24 20:29:00,
2013-01-24 15:34:00,13.5,-14.3,30.08,WNW,292,15.0,19.6,27,0.00,CLR,,0.00,WeatherDisplay:10.37,2013-01-24 20:34:00,
2013-01-24 15:39:00,13.3,-13.8,30.08,NNW,337,8.1,20.7,28,0.00,CLR,,0.00,WeatherDisplay:10.37,2013-01-24 20:39:00,
2013-01-24 15:44:00,13.0,-14.8,30.09,West,279,14.7,21.9,27,0.00,CLR,,0.00,WeatherDisplay:10.37,2013-01-24 20:44:00,
2013-01-24 15:49:00,12.6,-15.1,30.08,WNW,302,11.2,20.0,27,0.00,CLR,,0.00,WeatherDisplay:10.37,2013-01-24 20:49:00,
2013-01-24 15:54:00,12.5,-14.5,30.08,WNW,292,23.1,34.5,28,0.00,CLR,,0.00,WeatherDisplay:10.37,2013-01-24 20:54:00,
2013-01-24 15:59:00,12.5,-14.5,30.08,NW,320,9.5,14.0,28,0.00,CLR,,0.00,WeatherDisplay:10.37,2013-01-24 20:59:00,
2013-01-24 16:04:00,12.5,-14.5,30.08,West,278,14.9,25.0,28,0.00,CLR,,0.00,WeatherDisplay:10.37,2013-01-24 21:04:00,
2013-01-24 16:09:00,12.3,-14.7,30.08,West,269,14.6,27.0,28,0.00,CLR,,0.00,WeatherDisplay:10.37,2013-01-24 21:09:00,
2013-01-24 16:14:00,12.3,-14.7,30.09,North,355,14.3,21.9,28,0.00,CLR,,0.00,WeatherDisplay:10.37,2013-01-24 21:14:00,
2013-01-24 16:19:00,12.3,-14.7,30.09,NNW,343,11.1,12.7,28,0.00,CLR,,0.00,WeatherDisplay:10.37,2013-01-24 21:19:00,
2013-01-24 16:24:00,12.3,-14.7,30.09,NNW,340,9.9,12.7,28,0.00,CLR,,0.00,WeatherDisplay:10.37,2013-01-24 21:24:00,
2013-01-24 16:29:00,12.1,-14.8,30.09,West,281,11.4,17.3,28,0.00,CLR,,0.00,WeatherDisplay:10.37,2013-01-24 21:29:00,
2013-01-24 16:34:00,12.1,-15.6,30.09,NW,321,10.4,13.8,27,0.00,CLR,,0.00,WeatherDisplay:10.37,2013-01-24 21:34:00,
2013-01-24 16:39:00,12.0,-14.9,30.09,NW,310,18.5,19.6,28,0.00,CLR,,0.00,WeatherDisplay:10.37,2013-01-24 21:39:00,
2013-01-24 16:44:00,12.0,-15.7,30.09,WNW,289,15.1,21.9,27,0.00,CLR,,0.00,WeatherDisplay:10.37,2013-01-24 21:44:00,
2013-01-24 16:49:00,12.0,-14.9,30.09,WNW,296,8.5,13.8,28,0.00,CLR,,0.00,WeatherDisplay:10.37,2013-01-24 21:49:00,
2013-01-24 16:54:00,12.0,-14.9,30.09,WNW,295,12.1,20.7,28,0.00,CLR,,0.00,WeatherDisplay:10.37,2013-01-24 21:54:00,
2013-01-24 16:59:00,11.8,-15.1,30.09,WNW,283,13.1,18.4,28,0.00,CLR,,0.00,WeatherDisplay:10.37,2013-01-24 21:59:00,
2013-01-24 17:04:00,11.8,-15.1,30.09,WNW,282,9.9,19.6,28,0.00,CLR,,0.00,WeatherDisplay:10.37,2013-01-24 22:04:00,
2013-01-24 17:09:00,11.8,-15.1,30.10,NW,307,12.1,16.1,28,0.00,CLR,,0.00,WeatherDisplay:10.37,2013-01-24 22:09:00,
2013-01-24 17:14:00,11.6,-14.6,30.10,NW,320,13.0,18.4,29,0.00,CLR,,0.00,WeatherDisplay:10.37,2013-01-24 22:14:00,
2013-01-24 17:19:00,11.6,-14.6,30.10,WNW,300,14.2,20.7,29,0.00,CLR,,0.00,WeatherDisplay:10.37,2013-01-24 22:19:00,
2013-01-24 17:24:00,11.6,-14.6,30.10,NW,309,9.4,13.8,29,0.00,CLR,,0.00,WeatherDisplay:10.37,2013-01-24 22:24:00,
2013-01-24 17:29:00,11.6,-13.9,30.10,WNW,297,15.1,18.4,30,0.00,CLR,,0.00,WeatherDisplay:10.37,2013-01-24 22:29:00,
2013-01-24 17:34:00,11.6,-14.6,30.10,WNW,289,8.4,18.4,29,0.00,CLR,,0.00,WeatherDisplay:10.37,2013-01-24 22:34:00,
2013-01-24 17:39:00,11.6,-14.6,30.11,WNW,288,11.2,15.0,29,0.00,CLR,,0.00,WeatherDisplay:10.37,2013-01-24 22:39:00,
2013-01-24 17:44:00,11.4,-14.8,30.11,NNW,329,16.4,25.3,29,0.00,CLR,,0.00,WeatherDisplay:10.37,2013-01-24 22:44:00,
2013-01-24 17:49:00,11.6,-14.6,30.11,NW,305,12.2,29.9,29,0.00,CLR,,0.00,WeatherDisplay:10.37,2013-01-24 22:49:00,
2013-01-24 17:54:00,11.4,-14.8,30.11,NNW,336,12.6,15.0,29,0.00,CLR,,0.00,WeatherDisplay:10.37,2013-01-24 22:54:00,
2013-01-24 17:59:00,11.3,-14.2,30.11,NNW,334,16.0,19.6,30,0.00,CLR,,0.00,WeatherDisplay:10.37,2013-01-24 22:59:00,
2013-01-24 18:04:00,11.4,-15.5,30.11,NNW,330,14.7,24.2,28,0.00,CLR,,0.00,WeatherDisplay:10.37,2013-01-24 23:04:00,
2013-01-24 18:09:00,11.4,-15.5,30.11,WNW,289,10.9,25.3,28,0.00,CLR,,0.00,WeatherDisplay:10.37,2013-01-24 23:09:00,
2013-01-24 18:14:00,11.4,-14.8,30.11,WNW,283,11.1,25.3,29,0.00,CLR,,0.00,WeatherDisplay:10.37,2013-01-24 23:14:00,
2013-01-24 18:19:00,11.4,-15.5,30.11,WNW,293,16.6,25.3,28,0.00,CLR,,0.00,WeatherDisplay:10.37,2013-01-24 23:19:00,
2013-01-24 18:24:00,11.4,-14.8,30.11,NW,309,14.2,21.9,29,0.00,CLR,,0.00,WeatherDisplay:10.37,2013-01-24 23:24:00,
2013-01-24 18:29:00,11.3,-14.9,30.12,WNW,303,15.5,24.2,29,0.00,CLR,,0.00,WeatherDisplay:10.37,2013-01-24 23:29:00,
2013-01-24 18:34:00,11.3,-15.5,30.12,NW,319,13.4,19.6,28,0.00,CLR,,0.00,WeatherDisplay:10.37,2013-01-24 23:34:00,
2013-01-24 18:39:00,11.1,-15.0,30.13,WNW,295,13.4,18.4,29,0.00,CLR,,0.00,WeatherDisplay:10.37,2013-01-24 23:39:00,
2013-01-24 18:44:00,10.9,-15.2,30.13,North,350,12.7,28.8,29,0.00,CLR,,0.00,WeatherDisplay:10.37,2013-01-24 23:44:00,
2013-01-24 18:49:00,10.9,-15.2,30.14,WNW,299,7.8,17.3,29,0.00,CLR,,0.00,WeatherDisplay:10.37,2013-01-24 23:49:00,
2013-01-24 18:54:00,10.8,-15.3,30.14,NW,314,9.9,16.1,29,0.00,CLR,,0.00,WeatherDisplay:10.37,2013-01-24 23:54:00,
2013-01-24 18:59:00,10.8,-15.3,30.14,WNW,293,9.9,19.6,29,0.00,CLR,,0.00,WeatherDisplay:10.37,2013-01-24 23:59:00,
2013-01-24 19:04:00,10.6,-15.5,30.14,NW,316,8.3,18.4,29,0.00,CLR,,0.00,WeatherDisplay:10.37,2013-01-25 00:04:00,
2013-01-24 19:09:00,10.6,-15.5,30.14,NNW,347,11.2,21.9,29,0.00,CLR,,0.00,WeatherDisplay:10.37,2013-01-25 00:09:00,
2013-01-24 19:14:00,10.4,-15.6,30.14,NW,305,11.2,16.1,29,0.00,CLR,,0.00,WeatherDisplay:10.37,2013-01-25 00:14:00,
2013-01-24 19:19:00,10.4,-15.6,30.14,WNW,293,15.5,20.7,29,0.00,CLR,,0.00,WeatherDisplay:10.37,2013-01-25 00:19:00,
2013-01-24 19:24:00,10.2,-15.8,30.14,NNW,334,11.4,19.6,29,0.00,CLR,,0.00,WeatherDisplay:10.37,2013-01-25 00:24:00,
2013-01-24 19:29:00,10.2,-15.8,30.15,NW,319,18.5,26.0,29,0.00,CLR,,0.00,WeatherDisplay:10.37,2013-01-25 00:29:00,
2013-01-24 19:34:00,10.2,-15.2,30.15,West,268,17.0,19.6,30,0.00,CLR,,0.00,WeatherDisplay:10.37,2013-01-25 00:34:00,
2013-01-24 19:39:00,10.2,-15.2,30.15,WNW,299,15.6,25.3,30,0.00,CLR,,0.00,WeatherDisplay:10.37,2013-01-25 00:39:00,
2013-01-24 19:44:00,10.2,-14.5,30.15,WNW,297,11.0,24.2,31,0.00,CLR,,0.00,WeatherDisplay:10.37,2013-01-25 00:44:00,
2013-01-24 19:49:00,10.1,-15.2,30.15,WNW,292,12.0,18.4,30,0.00,CLR,,0.00,WeatherDisplay:10.37,2013-01-25 00:49:00,
2013-01-24 19:54:00,10.1,-15.2,30.15,NNW,330,17.0,18.0,30,0.00,CLR,,0.00,WeatherDisplay:10.37,2013-01-25 00:54:00,
2013-01-24 19:59:00,10.1,-15.9,30.15,NW,305,12.6,16.0,29,0.00,CLR,,0.00,WeatherDisplay:10.37,2013-01-25 00:59:00,
2013-01-24 20:04:00,10.1,-15.9,30.15,North,7,12.6,19.6,29,0.00,CLR,,0.00,WeatherDisplay:10.37,2013-01-25 01:04:00,
2013-01-24 20:09:00,10.1,-15.9,30.15,NNW,344,11.2,28.8,29,0.00,CLR,,0.00,WeatherDisplay:10.37,2013-01-25 01:09:00,
2013-01-24 20:14:00,9.9,-16.1,30.15,NW,326,15.1,19.6,29,0.00,CLR,,0.00,WeatherDisplay:10.37,2013-01-25 01:14:00,
2013-01-24 20:19:00,9.9,-15.4,30.15,NW,317,16.3,21.9,30,0.00,CLR,,0.00,WeatherDisplay:10.37,2013-01-25 01:19:00,
2013-01-24 20:24:00,9.7,-15.6,30.15,NW,313,15.3,19.6,30,0.00,CLR,,0.00,WeatherDisplay:10.37,2013-01-25 01:24:00,
2013-01-24 20:29:00,9.7,-14.9,30.15,NW,306,18.0,24.0,31,0.00,CLR,,0.00,WeatherDisplay:10.37,2013-01-25 01:29:00,
2013-01-24 20:34:00,9.7,-14.9,30.15,North,0,17.1,20.7,31,0.00,CLR,,0.00,WeatherDisplay:10.37,2013-01-25 01:34:00,
2013-01-24 20:39:00,9.6,-15.0,30.16,NNW,338,10.6,18.4,31,0.00,CLR,,0.00,WeatherDisplay:10.37,2013-01-25 01:39:00,
2013-01-24 20:44:00,9.6,-15.0,30.16,WNW,297,11.0,27.6,31,0.00,CLR,,0.00,WeatherDisplay:10.37,2013-01-25 01:44:00,
2013-01-24 20:49:00,9.4,-15.2,30.16,NNW,336,12.6,19.6,31,0.00,CLR,,0.00,WeatherDisplay:10.37,2013-01-25 01:49:00,
2013-01-24 20:54:00,9.4,-15.2,30.16,WNW,282,16.0,20.7,31,0.00,CLR,,0.00,WeatherDisplay:10.37,2013-01-25 01:54:00,
2013-01-24 20:59:00,9.3,-14.7,30.16,NW,314,6.0,28.0,32,0.00,CLR,,0.00,WeatherDisplay:10.37,2013-01-25 01:59:00,
2013-01-24 21:04:00,9.0,-15.6,30.16,NW,316,8.4,14.0,31,0.00,CLR,,0.00,WeatherDisplay:10.37,2013-01-25 02:04:00,
2013-01-24 21:09:00,9.0,-15.6,30.17,WNW,297,17.2,21.9,31,0.00,CLR,,0.00,WeatherDisplay:10.37,2013-01-25 02:09:00,
2013-01-24 21:14:00,9.0,-14.9,30.17,WNW,293,12.1,17.3,32,0.00,CLR,,0.00,WeatherDisplay:10.37,2013-01-25 02:14:00,
2013-01-24 21:19:00,8.9,-15.0,30.17,WNW,290,15.5,20.7,32,0.00,CLR,,0.00,WeatherDisplay:10.37,2013-01-25 02:19:00,
2013-01-24 21:24:00,8.9,-15.0,30.17,NW,313,9.9,21.0,32,0.00,CLR,,0.00,WeatherDisplay:10.37,2013-01-25 02:24:00,
2013-01-24 21:29:00,8.7,-14.6,30.17,WNW,296,14.0,29.0,33,0.00,CLR,,0.00,WeatherDisplay:10.37,2013-01-25 02:29:00,
2013-01-24 21:34:00,8.7,-14.6,30.17,NW,306,11.9,24.2,33,0.00,CLR,,0.00,WeatherDisplay:10.37,2013-01-25 02:34:00,
2013-01-24 21:39:00,8.7,-14.0,30.18,WNW,288,17.5,19.0,34,0.00,CLR,,0.00,WeatherDisplay:10.37,2013-01-25 02:39:00,
2013-01-24 21:44:00,8.5,-14.2,30.18,WNW,289,13.4,19.6,34,0.00,CLR,,0.00,WeatherDisplay:10.37,2013-01-25 02:44:00,
2013-01-24 21:49:00,8.3,-14.4,30.18,West,279,16.5,16.5,34,0.00,CLR,,0.00,WeatherDisplay:10.37,2013-01-25 02:49:00,
2013-01-24 21:54:00,8.3,-14.4,30.18,WNW,296,14.2,18.4,34,0.00,CLR,,0.00,WeatherDisplay:10.37,2013-01-25 02:54:00,
2013-01-24 21:59:00,8.3,-14.4,30.18,NNW,336,11.1,24.2,34,0.00,CLR,,0.00,WeatherDisplay:10.37,2013-01-25 02:59:00,
2013-01-24 22:04:00,8.1,-14.5,30.18,WNW,290,13.5,19.6,34,0.00,CLR,,0.00,WeatherDisplay:10.37,2013-01-25 03:04:00,
2013-01-24 22:09:00,8.1,-14.5,30.18,NNW,340,12.3,17.3,34,0.00,CLR,,0.00,WeatherDisplay:10.37,2013-01-25 03:09:00,
2013-01-24 22:14:00,8.1,-14.5,30.19,NW,316,11.4,18.4,34,0.00,CLR,,0.00,WeatherDisplay:10.37,2013-01-25 03:14:00,
2013-01-24 22:19:00,8.0,-14.1,30.20,NNW,336,12.5,17.3,35,0.00,CLR,,0.00,WeatherDisplay:10.37,2013-01-25 03:19:00,
2013-01-24 22:24:00,8.0,-14.1,30.20,NW,326,10.3,12.7,35,0.00,CLR,,0.00,WeatherDisplay:10.37,2013-01-25 03:24:00,
2013-01-24 22:29:00,8.0,-13.5,30.19,NW,326,8.8,17.3,36,0.00,CLR,,0.00,WeatherDisplay:10.37,2013-01-25 03:29:00,
2013-01-24 22:34:00,7.8,-13.7,30.19,WNW,282,14.0,19.6,36,0.00,CLR,,0.00,WeatherDisplay:10.37,2013-01-25 03:34:00,
2013-01-24 22:39:00,7.6,-13.3,30.20,NW,307,11.7,19.6,37,0.00,CLR,,0.00,WeatherDisplay:10.37,2013-01-25 03:39:00,
2013-01-24 22:44:00,7.4,-13.5,30.20,WNW,299,12.9,19.6,37,0.00,CLR,,0.00,WeatherDisplay:10.37,2013-01-25 03:44:00,
2013-01-24 22:49:00,7.4,-13.5,30.19,NNW,329,19.8,27.6,37,0.00,CLR,,0.00,WeatherDisplay:10.37,2013-01-25 03:49:00,
2013-01-24 22:54:00,7.6,-13.3,30.19,North,5,7.9,19.6,37,0.00,CLR,,0.00,WeatherDisplay:10.37,2013-01-25 03:54:00,
2013-01-24 22:59:00,7.5,-13.4,30.21,NNW,341,8.0,29.0,37,0.00,CLR,,0.00,WeatherDisplay:10.37,2013-01-25 03:59:00,
2013-01-24 23:04:00,7.4,-13.0,30.22,WNW,303,9.7,13.8,38,0.00,CLR,,0.00,WeatherDisplay:10.37,2013-01-25 04:04:00,
2013-01-24 23:09:00,7.3,-12.5,30.21,NNW,327,15.9,17.3,39,0.00,CLR,,0.00,WeatherDisplay:10.37,2013-01-25 04:09:00,
2013-01-24 23:14:00,7.1,-12.7,30.20,WNW,295,12.0,17.3,39,0.00,CLR,,0.00,WeatherDisplay:10.37,2013-01-25 04:14:00,
2013-01-24 23:19:00,7.1,-12.7,30.20,NW,310,13.6,21.9,39,0.00,CLR,,0.00,WeatherDisplay:10.37,2013-01-25 04:19:00,
2013-01-24 23:24:00,7.1,-12.7,30.20,NW,312,12.2,20.7,39,0.00,CLR,,0.00,WeatherDisplay:10.37,2013-01-25 04:24:00,
2013-01-24 23:29:00,6.9,-12.4,30.20,NW,313,10.0,26.0,40,0.00,CLR,,0.00,WeatherDisplay:10.37,2013-01-25 04:29:00,
2013-01-24 23:34:00,6.9,-12.9,30.20,West,266,6.0,11.5,39,0.00,CLR,,0.00,WeatherDisplay:10.37,2013-01-25 04:34:00,
2013-01-24 23:39:00,6.7,-12.6,30.21,NNW,334,7.7,12.7,40,0.00,CLR,,0.00,WeatherDisplay:10.37,2013-01-25 04:39:00,
2013-01-24 23:44:00,6.7,-12.1,30.21,North,7,7.9,11.5,41,0.00,CLR,,0.00,WeatherDisplay:10.37,2013-01-25 04:44:00,
2013-01-24 23:49:00,6.6,-12.2,30.22,West,281,5.8,10.4,41,0.00,CLR,,0.00,WeatherDisplay:10.37,2013-01-25 04:49:00,
2013-01-24 23:54:00,6.6,-11.7,30.22,NNW,338,8.7,11.0,42,0.00,CLR,,0.00,WeatherDisplay:10.37,2013-01-25 04:54:00,
2013-01-24 23:59:00,6.4,-11.9,30.23,NW,305,3.7,7.0,42,0.00,CLR,,0.00,WeatherDisplay:10.37,2013-01-25 04:59:00,